Time;durP1;ratioP1;P1;durP2;ratioP2;P2;SDS_P1;SDS_P2;PMS_P1;PMS_P2;Temp;Humidity;BMP_temperature;BMP_pressure;BME280_temperature;BME280_humidity;BME280_pressure;Samples;Min_cycle;Max_cycle;Signal;HPM_P1;HPM_P2
2021/07/20 00:00:32;;;;;;;8.48;5.00;;;20.10;99.90;;;20.09;87.27;101352.84;4169837;28;20277;-71
2021/07/20 00:02:41;;;;;;;6.18;5.18;;;20.10;99.90;;;20.16;87.09;101359.06;4169651;28;20114;-71
2021/07/20 00:04:41;;;;;;;6.93;4.70;;;20.10;99.90;;;20.11;87.44;101356.16;4171067;28;20104;-71
2021/07/20 00:06:42;;;;;;;8.60;5.07;;;20.00;99.90;;;20.08;87.67;101356.56;4170980;28;20040;-71
2021/07/20 00:08:43;;;;;;;5.65;5.05;;;20.10;99.90;;;20.02;87.62;101358.19;4169307;28;20032;-71
2021/07/20 00:10:55;;;;;;;8.48;5.53;;;20.10;99.90;;;20.05;87.79;101354.28;4169568;28;20025;-71
2021/07/20 00:12:56;;;;;;;8.35;5.50;;;20.00;99.90;;;20.00;88.05;101357.59;4168869;28;20029;-72
2021/07/20 00:14:58;;;;;;;8.98;5.47;;;20.00;99.90;;;20.01;87.68;101353.06;4169724;28;20026;-71
2021/07/20 00:16:59;;;;;;;9.07;4.95;;;20.00;99.90;;;20.02;88.03;101352.84;4167680;28;20104;-71
2021/07/20 00:19:00;;;;;;;8.30;5.40;;;20.00;99.90;;;19.95;88.60;101353.88;4153143;28;20030;-71
2021/07/20 00:21:07;;;;;;;6.25;5.05;;;19.90;99.90;;;19.95;88.07;101345.84;4170874;28;20362;-71
2021/07/20 00:23:09;;;;;;;8.30;5.45;;;20.00;99.90;;;20.02;88.30;101354.69;4168388;28;20037;-71
2021/07/20 00:25:12;;;;;;;8.80;5.22;;;20.00;99.90;;;19.94;88.33;101357.56;4169350;28;20026;-71
2021/07/20 00:27:13;;;;;;;5.70;4.93;;;19.90;99.90;;;19.82;88.76;101346.63;4174646;28;20571;-71
2021/07/20 00:29:14;;;;;;;8.90;5.40;;;19.90;99.90;;;19.78;88.95;101340.84;4170855;28;20033;-71
2021/07/20 00:31:14;;;;;;;7.47;5.63;;;19.90;99.90;;;19.85;89.55;101351.56;4169535;28;20397;-71
2021/07/20 00:33:16;;;;;;;7.15;5.38;;;19.80;99.90;;;19.84;89.16;101348.06;4185710;28;20459;-71
2021/07/20 00:35:16;;;;;;;9.73;5.40;;;19.80;99.90;;;19.83;89.64;101353.63;4169552;28;20053;-71
2021/07/20 00:37:18;;;;;;;6.68;5.68;;;19.80;99.90;;;19.72;90.10;101344.31;4169023;28;20017;-71
2021/07/20 00:39:19;;;;;;;6.63;4.60;;;19.80;99.90;;;19.75;89.88;101343.91;4169502;28;20047;-71
2021/07/20 00:41:20;;;;;;;8.05;5.55;;;19.70;99.90;;;19.76;90.14;101342.91;4166799;28;20030;-71
2021/07/20 00:43:21;;;;;;;7.90;5.63;;;19.80;99.90;;;19.73;90.16;101335.28;4152691;28;20053;-71
2021/07/20 00:45:22;;;;;;;7.28;5.38;;;19.80;99.90;;;19.70;90.39;101324.13;4161121;28;20552;-71
2021/07/20 00:47:23;;;;;;;5.65;5.13;;;19.70;99.90;;;19.77;90.67;101338.38;4170383;28;20036;-71
2021/07/20 00:49:24;;;;;;;6.18;5.05;;;19.70;99.90;;;19.76;90.33;101334.03;4152584;28;20072;-71
2021/07/20 00:51:25;;;;;;;7.10;5.63;;;19.70;99.90;;;19.73;90.89;101337.13;4170441;28;20101;-71
2021/07/20 00:53:26;;;;;;;10.73;5.53;;;19.70;99.90;;;19.71;91.00;101329.28;4168880;28;20030;-71
2021/07/20 00:55:27;;;;;;;5.47;4.90;;;19.70;99.90;;;19.71;91.17;101329.28;4185586;28;20028;-71
2021/07/20 00:57:29;;;;;;;6.93;5.75;;;19.70;99.90;;;19.73;90.96;101324.56;4169048;28;20030;-71
2021/07/20 00:59:30;;;;;;;8.00;5.30;;;19.70;99.90;;;19.69;91.04;101325.97;4185653;28;20033;-71
2021/07/20 01:01:31;;;;;;;7.53;5.60;;;19.70;99.90;;;19.62;91.64;101325.13;4170243;28;20397;-71
2021/07/20 01:03:33;;;;;;;6.28;5.10;;;19.70;99.90;;;19.60;91.94;101329.84;4168884;28;20033;-71
2021/07/20 01:05:36;;;;;;;7.47;5.43;;;19.70;99.90;;;19.70;91.11;101341.03;4170136;28;20148;-71
2021/07/20 01:07:37;;;;;;;5.90;5.10;;;19.70;99.90;;;19.61;91.91;101334.19;4168716;28;20037;-71
2021/07/20 01:09:38;;;;;;;7.07;5.32;;;19.60;99.90;;;19.62;92.06;101338.50;4185526;28;20616;-71
2021/07/20 01:11:40;;;;;;;8.30;5.47;;;19.60;99.90;;;19.61;91.94;101330.69;4170089;28;20021;-71
2021/07/20 01:13:42;;;;;;;8.25;5.25;;;19.60;99.90;;;19.56;92.32;101325.91;4168735;28;20512;-71
2021/07/20 01:15:44;;;;;;;6.03;5.38;;;19.60;99.90;;;19.56;92.59;101341.19;4168680;28;20079;-71
2021/07/20 01:17:46;;;;;;;7.32;6.13;;;19.60;99.90;;;19.54;92.26;101332.50;4168917;28;20430;-71
2021/07/20 01:19:53;;;;;;;7.80;5.50;;;19.50;99.90;;;19.53;92.45;101331.72;4168768;28;20064;-71
2021/07/20 01:21:57;;;;;;;8.15;5.18;;;19.50;99.90;;;19.51;92.78;101328.38;4169558;28;20477;-71
2021/07/20 01:23:58;;;;;;;8.52;5.75;;;19.50;99.90;;;19.44;92.68;101332.91;4168755;28;20030;-71
2021/07/20 01:26:00;;;;;;;8.23;5.75;;;19.50;99.90;;;19.37;93.20;101332.00;4152209;28;20034;-71
2021/07/20 01:28:07;;;;;;;10.15;5.93;;;19.50;99.90;;;19.45;92.88;101344.41;4169826;28;20041;-71
2021/07/20 01:30:09;;;;;;;7.13;5.38;;;19.50;99.90;;;19.44;92.96;101346.28;4168483;28;20116;-71
2021/07/20 01:32:11;;;;;;;7.47;5.60;;;19.40;99.90;;;19.47;93.01;101345.06;4168267;28;20120;-72
2021/07/20 01:34:15;;;;;;;6.63;5.40;;;19.40;99.90;;;19.42;93.56;101339.44;4168215;28;20033;-71
2021/07/20 01:36:17;;;;;;;7.45;5.40;;;19.40;99.90;;;19.51;92.92;101344.44;4184908;28;20033;-71
2021/07/20 01:38:20;;;;;;;8.50;6.40;;;19.50;99.90;;;19.47;93.14;101337.84;4168105;28;20080;-71
2021/07/20 01:40:23;;;;;;;9.70;5.47;;;19.40;99.90;;;19.43;93.38;101339.28;4169765;28;20397;-71
2021/07/20 01:42:26;;;;;;;6.78;5.47;;;19.40;99.90;;;19.30;93.81;101333.81;4168304;28;20288;-71
2021/07/20 01:44:28;;;;;;;8.20;5.78;;;19.40;99.90;;;19.32;93.96;101335.25;4168324;28;20113;-71
2021/07/20 01:46:35;;;;;;;9.45;5.53;;;19.30;99.90;;;19.25;94.23;101336.25;4184770;28;20025;-71
2021/07/20 01:48:41;;;;;;;8.57;6.25;;;19.30;99.90;;;19.24;94.31;101326.56;4169641;28;20029;-71
2021/07/20 01:50:44;;;;;;;9.18;5.88;;;19.30;99.90;;;19.24;94.40;101329.25;4168118;28;20037;-71
2021/07/20 01:52:47;;;;;;;7.17;6.33;;;19.30;99.90;;;19.30;94.24;101341.84;4167601;28;20113;-71
2021/07/20 01:54:48;;;;;;;7.45;5.85;;;19.30;99.90;;;19.24;94.28;101334.59;4168181;28;20104;-71
2021/07/20 01:56:49;;;;;;;6.78;5.75;;;19.20;99.90;;;19.22;94.42;101333.97;4168090;28;20089;-71
2021/07/20 01:58:50;;;;;;;6.93;5.95;;;19.20;99.90;;;19.21;94.46;101343.84;4184428;28;20515;-71
2021/07/20 02:00:53;;;;;;;7.78;5.40;;;19.20;99.90;;;19.18;95.10;101352.28;4167900;28;20029;-71
2021/07/20 02:10:06;;;;;;;7.55;5.40;;;19.10;99.90;;;19.00;95.57;101333.25;4165835;28;20162;-71
2021/07/20 02:12:14;;;;;;;8.32;5.80;;;19.10;99.90;;;19.05;95.25;101341.50;4165783;28;20075;-71
2021/07/20 02:14:16;;;;;;;7.63;5.70;;;19.10;99.90;;;19.07;94.85;101338.63;4167982;28;20026;-71
2021/07/20 02:16:22;;;;;;;8.48;5.65;;;19.00;99.90;;;19.07;94.93;101336.78;4151337;28;20041;-71
2021/07/20 02:18:28;;;;;;;9.95;5.95;;;19.00;99.90;;;19.12;94.47;101337.00;4167801;28;20036;-71
2021/07/20 02:20:31;;;;;;;8.75;5.80;;;19.00;99.90;;;19.04;94.82;101331.84;4167676;28;20057;-71
2021/07/20 02:22:33;;;;;;;7.15;5.70;;;19.00;99.90;;;19.00;94.26;101319.03;4167632;28;20049;-71
2021/07/20 02:24:36;;;;;;;6.60;5.63;;;19.00;99.90;;;18.95;95.29;101335.69;4167943;28;20459;-71
2021/07/20 02:26:40;;;;;;;6.97;6.00;;;19.00;99.90;;;18.97;95.12;101336.31;4167789;28;20056;-71
2021/07/20 02:28:41;;;;;;;6.00;5.40;;;19.00;99.90;;;18.89;95.77;101335.63;4167606;28;20484;-71
2021/07/20 02:30:44;;;;;;;7.32;5.80;;;18.90;99.90;;;18.85;96.07;101343.22;4167647;28;20025;-71
2021/07/20 02:32:47;;;;;;;7.15;5.60;;;18.90;99.90;;;18.83;96.42;101339.91;4184117;28;20063;-71
2021/07/20 02:34:49;;;;;;;9.98;6.70;;;18.80;99.90;;;18.81;95.37;101341.97;4167426;28;20026;-71
2021/07/20 02:36:52;;;;;;;7.90;5.90;;;18.80;99.90;;;18.81;95.79;101346.50;4167134;28;20105;-71
2021/07/20 02:38:54;;;;;;;6.50;5.25;;;18.80;99.90;;;18.78;96.29;101343.19;4167526;28;20108;-71
2021/07/20 02:40:58;;;;;;;8.27;6.60;;;18.80;99.90;;;18.82;96.00;101350.81;4167499;28;20033;-71
2021/07/20 02:43:01;;;;;;;6.28;5.25;;;18.80;99.90;;;18.77;95.97;101344.19;4167345;28;20041;-71
2021/07/20 02:45:08;;;;;;;10.20;6.22;;;18.80;99.90;;;18.71;96.25;101347.66;4167143;28;20045;-71
2021/07/20 02:47:09;;;;;;;8.32;5.93;;;18.70;99.90;;;18.77;95.91;101344.19;4151217;28;20037;-71
2021/07/20 02:49:14;;;;;;;6.10;5.50;;;18.70;99.90;;;18.77;96.09;101344.19;4167505;28;20037;-71
2021/07/20 02:51:21;;;;;;;8.63;5.90;;;18.70;99.90;;;18.67;96.21;101345.53;4168600;28;20080;-71
2021/07/20 02:53:22;;;;;;;7.13;5.97;;;18.70;99.90;;;18.64;96.50;101340.59;4167290;28;20528;-72
2021/07/20 02:55:25;;;;;;;7.43;5.40;;;18.70;99.90;;;18.62;96.72;101338.13;4168729;28;20029;-71
2021/07/20 02:57:27;;;;;;;6.83;5.43;;;18.60;99.90;;;18.67;96.79;101346.38;4167373;28;20122;-71
2021/07/20 02:59:29;;;;;;;6.70;5.65;;;18.60;99.90;;;18.66;96.53;101342.06;4150746;28;20280;-71
2021/07/20 03:01:36;;;;;;;7.90;5.28;;;18.60;99.90;;;18.66;96.37;101344.75;4150952;28;20049;-71
2021/07/20 03:03:37;;;;;;;6.05;5.55;;;18.60;99.90;;;18.62;96.35;101346.13;4167450;28;20035;-71
2021/07/20 03:05:46;;;;;;;11.38;6.45;;;18.60;99.90;;;18.57;96.41;101337.88;4150787;28;20025;-71
2021/07/20 03:07:54;;;;;;;7.75;6.10;;;18.60;99.90;;;18.56;96.53;101344.25;4167007;28;20033;-71
2021/07/20 03:09:56;;;;;;;6.88;5.70;;;18.50;99.90;;;18.44;97.09;101337.75;4166887;28;20036;-71
2021/07/20 03:12:12;;;;;;;8.98;5.78;;;18.50;99.90;;;18.51;96.75;101338.66;4167156;28;20040;-72
2021/07/20 03:14:20;;;;;;;6.80;5.55;;;18.50;99.90;;;18.49;97.26;101343.34;4167083;28;20092;-71
2021/07/20 03:16:22;;;;;;;7.22;5.72;;;18.50;99.90;;;18.48;96.96;101336.34;4167055;28;20570;-71
2021/07/20 03:18:29;;;;;;;11.70;6.22;;;18.50;99.90;;;18.45;97.20;101336.72;4167123;28;20021;-71
2021/07/20 03:20:31;;;;;;;14.35;6.35;;;18.50;99.90;;;18.41;98.36;101340.78;4167106;28;20032;-71
2021/07/20 03:22:33;;;;;;;7.13;5.60;;;18.40;99.90;;;18.36;98.26;101340.56;4166986;28;20026;-71
2021/07/20 03:24:38;;;;;;;6.47;5.68;;;18.40;99.90;;;18.45;98.09;101346.59;4183630;28;20043;-71
2021/07/20 03:26:40;;;;;;;12.10;5.72;;;18.40;99.90;;;18.46;97.44;101349.03;4150841;28;20038;-71
2021/07/20 03:28:43;;;;;;;7.57;6.20;;;18.40;99.90;;;18.39;97.38;101337.50;4166950;28;20112;-71
2021/07/20 03:30:45;;;;;;;7.57;5.32;;;18.40;99.90;;;18.37;97.79;101339.50;4167108;28;20036;-71
2021/07/20 03:32:47;;;;;;;9.05;6.20;;;18.40;99.90;;;18.38;98.05;101341.19;4167057;28;20033;-71
2021/07/20 03:34:50;;;;;;;6.93;5.90;;;18.30;99.90;;;18.42;97.63;101337.13;4166940;28;20559;-71
2021/07/20 03:36:52;;;;;;;8.40;5.95;;;18.40;99.90;;;18.39;97.63;101342.84;4166879;28;20136;-71
2021/07/20 03:38:54;;;;;;;7.35;5.75;;;18.40;99.90;;;18.33;98.23;101342.78;4183616;28;20423;-71
2021/07/20 03:40:55;;;;;;;7.97;6.35;;;18.40;99.90;;;18.34;98.12;101342.56;4167010;28;20029;-71
2021/07/20 03:42:58;;;;;;;6.57;5.97;;;18.40;99.90;;;18.39;97.76;101348.19;4183242;28;20083;-71
2021/07/20 03:44:59;;;;;;;7.20;6.50;;;18.30;99.90;;;18.41;97.58;101356.81;4167120;28;20562;-71
2021/07/20 03:47:01;;;;;;;9.55;6.05;;;18.40;99.90;;;18.44;97.36;101344.91;4183544;28;20025;-71
2021/07/20 03:49:03;;;;;;;7.05;6.03;;;18.40;99.90;;;18.30;97.97;101349.34;4167047;28;20038;-71
2021/07/20 03:51:04;;;;;;;9.35;6.47;;;18.40;99.90;;;18.25;98.47;101341.88;4166843;28;20059;-71
2021/07/20 03:53:06;;;;;;;7.38;6.28;;;18.40;99.90;;;18.25;98.77;101341.03;4166751;28;20033;-71
2021/07/20 03:55:08;;;;;;;8.05;6.03;;;18.30;99.90;;;18.28;98.61;101346.00;4167057;28;20041;-71
2021/07/20 03:57:13;;;;;;;8.88;6.30;;;18.30;99.90;;;18.27;98.70;101341.69;4168092;28;20033;-71
2021/07/20 03:59:15;;;;;;;6.82;5.80;;;18.30;99.90;;;18.23;98.49;101343.09;4169729;28;20064;-72
2021/07/20 04:01:17;;;;;;;6.95;5.78;;;18.30;99.90;;;18.21;98.35;101350.47;4153237;28;20105;-71
2021/07/20 04:03:22;;;;;;;8.10;5.80;;;18.30;99.90;;;18.20;98.38;101354.16;4186563;28;20110;-71
2021/07/20 04:05:24;;;;;;;7.95;5.90;;;18.20;99.90;;;18.12;98.69;101352.44;4170024;28;20551;-71
2021/07/20 04:07:25;;;;;;;7.75;6.00;;;18.20;99.90;;;18.11;99.05;101352.63;4169528;28;20068;-71
2021/07/20 04:09:27;;;;;;;8.60;6.03;;;18.20;99.90;;;18.12;99.24;101351.63;4170212;28;20029;-71
2021/07/20 04:11:29;;;;;;;8.27;6.05;;;18.20;99.90;;;18.10;99.47;101350.97;4170006;28;20033;-71
2021/07/20 04:13:31;;;;;;;7.65;6.22;;;18.10;99.90;;;18.12;99.41;101357.78;4169786;28;20076;-71
2021/07/20 04:15:32;;;;;;;8.77;5.97;;;18.10;99.90;;;18.22;98.13;101347.59;4169862;28;20028;-71
2021/07/20 04:17:35;;;;;;;6.45;5.72;;;18.20;99.90;;;18.13;98.80;101353.25;4169799;28;20033;-71
2021/07/20 04:19:36;;;;;;;8.23;5.72;;;18.10;99.90;;;18.10;99.31;101350.97;4169776;28;20535;-71
2021/07/20 04:21:38;;;;;;;7.03;6.10;;;18.10;99.90;;;18.12;99.11;101352.44;4169390;28;20033;-71
2021/07/20 04:23:39;;;;;;;7.80;6.13;;;18.10;99.90;;;18.14;98.79;101353.06;4169587;28;20064;-71
2021/07/20 04:25:43;;;;;;;7.00;6.25;;;18.10;99.90;;;18.10;98.90;101351.78;4170868;28;20030;-71
2021/07/20 04:27:44;;;;;;;7.20;5.72;;;18.10;99.90;;;18.10;99.10;101348.28;4169596;28;20044;-71
2021/07/20 04:29:45;;;;;;;9.18;6.40;;;18.10;99.90;;;18.12;98.63;101349.78;4169617;28;20032;-71
2021/07/20 04:31:48;;;;;;;12.15;6.43;;;18.10;99.90;;;18.13;98.34;101355.91;4170640;28;20029;-71
2021/07/20 04:33:50;;;;;;;7.20;5.85;;;18.10;99.90;;;18.16;97.86;101348.38;4169196;28;20051;-71
2021/07/20 04:35:53;;;;;;;9.32;5.90;;;18.10;99.90;;;18.16;97.85;101352.88;4169514;28;20021;-71
2021/07/20 04:37:56;;;;;;;7.88;5.90;;;18.10;99.90;;;18.12;97.83;101362.28;4185589;28;20472;-72
2021/07/20 04:39:57;;;;;;;6.68;5.88;;;18.10;99.90;;;18.07;98.32;101348.69;4169177;28;20030;-71
2021/07/20 04:41:58;;;;;;;10.27;6.53;;;18.10;99.90;;;18.03;98.56;101350.09;4169317;28;20049;-71
2021/07/20 04:43:59;;;;;;;10.32;5.95;;;18.10;99.90;;;18.12;97.96;101363.13;4170549;28;20056;-71
2021/07/20 04:46:01;;;;;;;8.57;5.45;;;18.10;99.90;;;18.05;98.32;101364.06;4170454;28;20131;-71
2021/07/20 04:48:03;;;;;;;6.43;5.78;;;18.10;99.90;;;18.03;98.43;101358.09;4169197;28;20025;-71
2021/07/20 04:50:08;;;;;;;7.30;5.65;;;18.10;99.90;;;18.07;98.42;101356.72;4169300;28;20029;-71
2021/07/20 04:52:09;;;;;;;7.45;5.57;;;18.10;99.90;;;18.22;97.39;101370.81;4185334;28;20135;-71
2021/07/20 04:54:11;;;;;;;7.25;6.22;;;18.20;99.90;;;18.12;97.97;101370.31;4169094;28;20033;-71
2021/07/20 04:56:13;;;;;;;7.50;5.78;;;18.20;99.90;;;18.04;98.60;101365.09;4169066;28;20021;-71
2021/07/20 04:58:14;;;;;;;9.43;5.85;;;18.10;99.90;;;18.10;98.16;101365.16;4169159;28;20041;-71
2021/07/20 05:00:15;;;;;;;6.15;5.32;;;18.20;99.90;;;18.12;98.37;101376.47;4170367;28;20022;-71
2021/07/20 05:02:17;;;;;;;9.70;5.45;;;18.20;99.90;;;18.16;98.40;101374.22;4170236;28;20052;-71
2021/07/20 05:04:20;;;;;;;7.75;5.20;;;18.20;99.90;;;18.16;98.14;101369.72;4168973;28;20021;-71
2021/07/20 05:06:22;;;;;;;7.50;5.38;;;18.20;99.90;;;18.22;97.77;101379.66;4169114;28;20059;-72
2021/07/20 05:08:27;;;;;;;8.48;6.03;;;18.20;99.90;;;18.27;97.35;101371.06;4168172;28;20018;-72
2021/07/20 05:10:29;;;;;;;8.85;5.75;;;18.30;99.90;;;18.22;97.84;101368.97;4170182;28;20031;-71
2021/07/20 05:12:31;;;;;;;7.57;5.70;;;18.30;99.90;;;18.18;97.95;101372.22;4168997;28;20026;-72
2021/07/20 05:14:33;;;;;;;7.25;5.35;;;18.30;99.90;;;18.15;98.28;101367.25;4185508;28;20098;-72
2021/07/20 05:16:34;;;;;;;7.80;5.22;;;18.30;99.90;;;18.25;97.99;101378.44;4168783;28;20032;-72
2021/07/20 05:18:37;;;;;;;8.20;5.63;;;18.30;99.90;;;18.21;98.00;101371.84;4185304;28;20456;-71
2021/07/20 05:20:39;;;;;;;7.45;5.55;;;18.40;99.90;;;18.25;98.34;101378.44;4170030;28;20025;-71
2021/07/20 05:22:42;;;;;;;6.85;5.70;;;18.30;99.90;;;18.33;97.94;101375.66;4168539;28;20116;-71
2021/07/20 05:24:43;;;;;;;7.28;5.50;;;18.40;99.90;;;18.32;97.80;101384.69;4168720;28;20074;-70
2021/07/20 05:26:48;;;;;;;11.65;6.93;;;18.40;99.90;;;18.52;97.28;101384.88;4168693;28;20107;-70
2021/07/20 05:28:49;;;;;;;8.70;5.90;;;18.50;99.90;;;18.50;97.25;101393.09;4168864;28;20464;-71
2021/07/20 05:30:58;;;;;;;8.88;6.10;;;18.60;99.90;;;18.67;96.40;101397.16;4168777;28;20030;-70
2021/07/20 05:32:59;;;;;;;8.93;5.55;;;18.60;99.90;;;18.65;96.53;101398.38;4168367;28;20095;-70
2021/07/20 05:35:03;;;;;;;6.60;5.63;;;18.70;99.90;;;18.58;97.03;101395.63;4169664;28;20036;-70
2021/07/20 05:37:04;;;;;;;11.95;6.57;;;18.70;99.90;;;18.60;96.71;101398.13;4168352;28;20025;-70
2021/07/20 05:39:05;;;;;;;9.02;6.53;;;18.70;99.90;;;18.72;97.19;101396.59;4168553;28;20030;-70
2021/07/20 05:41:06;;;;;;;7.32;6.15;;;18.70;99.90;;;18.76;97.07;101395.16;4184947;28;20028;-70
2021/07/20 05:43:08;;;;;;;6.53;5.78;;;18.80;99.90;;;18.83;96.27;101398.72;4168014;28;20437;-70
2021/07/20 05:45:11;;;;;;;9.27;6.32;;;18.90;99.90;;;18.87;96.47;101401.84;4168097;28;20021;-70
2021/07/20 05:47:17;;;;;;;8.13;5.85;;;19.00;99.90;;;18.93;95.94;101407.25;4166956;28;20083;-70
2021/07/20 05:49:18;;;;;;;6.80;6.10;;;19.00;99.90;;;18.89;96.19;101397.97;4167819;28;20029;-70
2021/07/20 05:51:20;;;;;;;8.25;5.38;;;19.00;99.90;;;18.94;96.76;101402.72;4168333;28;20033;-70
2021/07/20 05:53:28;;;;;;;7.60;5.65;;;19.10;99.90;;;18.91;96.68;101395.91;4167955;28;20524;-70
2021/07/20 05:55:30;;;;;;;8.77;6.28;;;19.10;99.90;;;19.16;95.02;101396.28;4152214;28;20513;-71
2021/07/20 05:57:32;;;;;;;9.07;5.50;;;19.20;99.90;;;19.12;95.22;101400.38;4168111;28;20505;-71
2021/07/20 05:59:34;;;;;;;8.27;5.53;;;19.30;99.90;;;19.05;95.75;101397.69;4168235;28;20058;-71
2021/07/20 06:01:35;;;;;;;10.15;5.90;;;19.30;99.90;;;19.06;96.38;101393.97;4169251;28;20025;-70
2021/07/20 06:03:39;;;;;;;10.07;6.10;;;19.30;99.90;;;19.16;96.10;101405.16;4151679;28;20085;-70
2021/07/20 06:05:42;;;;;;;;;;;19.30;99.90;;;19.18;95.94;101412.97;4168360;28;20037;-70
2021/07/20 06:07:45;;;;;;;11.13;5.82;;;19.40;99.90;;;19.27;96.09;101401.09;4167773;28;20416;-70
2021/07/20 06:09:48;;;;;;;8.25;5.45;;;19.40;99.90;;;19.34;95.55;101397.44;4169370;28;20104;-70
2021/07/20 06:11:50;;;;;;;7.57;6.45;;;19.50;99.90;;;19.43;95.11;101403.50;4168046;28;20029;-70
2021/07/20 06:13:53;;;;;;;12.18;7.70;;;19.60;99.90;;;19.48;94.76;101408.22;4167840;28;20566;-70
2021/07/20 06:15:55;;;;;;;12.43;6.83;;;19.60;99.90;;;19.55;93.62;101415.28;4168095;28;20025;-70
2021/07/20 06:17:58;;;;;;;12.25;7.63;;;19.70;99.90;;;19.65;92.42;101397.00;4168058;28;20024;-70
2021/07/20 06:20:00;;;;;;;10.68;7.07;;;19.80;99.90;;;19.79;92.13;101414.78;4167500;28;20025;-70
2021/07/20 06:22:06;;;;;;;11.68;7.20;;;19.90;99.90;;;19.80;92.18;101413.72;4183515;28;20075;-70
2021/07/20 06:24:08;;;;;;;11.70;7.60;;;20.00;99.90;;;19.82;91.97;101413.56;4167952;28;20036;-70
2021/07/20 06:26:11;;;;;;;10.13;7.53;;;20.00;99.90;;;19.83;92.05;101413.34;4151384;28;20029;-70
2021/07/20 06:28:14;;;;;;;10.85;7.43;;;20.00;99.90;;;19.94;91.30;101416.47;4167709;28;20116;-70
2021/07/20 06:30:16;;;;;;;11.70;6.80;;;20.10;99.90;;;20.02;90.89;101421.66;4167428;28;20035;-70
2021/07/20 06:32:18;;;;;;;9.65;6.60;;;20.20;99.90;;;20.09;90.89;101419.81;4167882;28;20041;-70
2021/07/20 06:34:20;;;;;;;7.30;5.53;;;20.30;99.90;;;20.09;90.92;101417.97;4184108;28;20025;-70
2021/07/20 06:36:22;;;;;;;8.07;5.63;;;20.40;99.90;;;20.18;89.67;101408.72;4167645;28;20030;-70
2021/07/20 06:38:24;;;;;;;8.13;6.50;;;20.50;99.90;;;20.24;89.83;101415.97;4167498;28;20017;-70
2021/07/20 06:40:25;;;;;;;6.68;5.25;;;20.50;99.90;;;20.30;89.85;101428.56;4167649;28;20036;-70
2021/07/20 06:42:27;;;;;;;7.10;5.80;;;20.60;99.90;;;20.32;89.78;101423.00;4184004;28;20043;-70
2021/07/20 06:44:30;;;;;;;10.48;5.78;;;20.60;99.90;;;20.39;88.40;101426.53;4167547;28;20041;-70
2021/07/20 06:46:32;;;;;;;7.72;5.93;;;20.70;99.90;;;20.41;88.88;101425.28;4167604;28;20034;-70
2021/07/20 06:48:38;;;;;;;8.57;5.75;;;20.70;99.90;;;20.45;89.04;101419.53;4167624;28;20509;-70
2021/07/20 06:50:41;;;;;;;7.50;6.15;;;20.70;99.90;;;20.54;87.40;101424.50;4167379;28;20512;-70
2021/07/20 06:52:43;;;;;;;7.65;6.35;;;20.80;99.90;;;20.63;86.93;101425.94;4167069;28;20579;-70
2021/07/20 06:54:45;;;;;;;7.65;5.95;;;20.90;99.90;;;20.69;87.40;101426.97;4167526;28;20056;-70
2021/07/20 06:56:53;;;;;;;11.73;5.78;;;21.00;99.90;;;20.62;85.88;101426.97;4167386;28;20400;-70
2021/07/20 06:58:55;;;;;;;10.85;5.35;;;21.00;99.90;;;20.73;86.88;101425.50;4183898;28;20535;-70
2021/07/20 07:01:00;;;;;;;15.27;6.10;;;21.10;99.90;;;20.73;87.00;101425.50;4167411;28;20100;-70
2021/07/20 07:03:03;;;;;;;9.48;5.53;;;21.10;99.90;;;20.81;86.88;101423.47;4167567;28;20029;-71
2021/07/20 07:05:13;;;;;;;10.60;6.18;;;21.20;99.90;;;20.88;86.36;101424.28;4167248;28;20037;-70
2021/07/20 07:07:16;;;;;;;8.15;5.68;;;21.30;99.90;;;20.87;85.27;101421.81;4167041;28;20030;-70
2021/07/20 07:09:18;;;;;;;14.75;6.78;;;21.30;99.90;;;20.94;85.89;101418.09;4154438;28;20040;-70
2021/07/20 07:11:19;;;;;;;9.50;4.90;;;21.40;99.90;;;20.99;86.21;101425.53;4167344;28;20163;-70
2021/07/20 07:13:22;;;;;;;9.93;5.45;;;21.40;99.90;;;21.07;85.72;101430.69;4183686;28;20033;-70
2021/07/20 07:15:23;;;;;;;9.50;5.40;;;21.50;99.90;;;21.13;86.13;101426.38;4167439;28;20053;-70
2021/07/20 07:17:26;;;;;;;9.90;6.05;;;21.50;99.90;;;21.14;85.26;101428.84;4167364;28;20029;-70
2021/07/20 07:19:27;;;;;;;11.55;5.55;;;21.60;99.90;;;21.21;85.98;101431.50;4183551;28;20104;-70
2021/07/20 07:21:29;;;;;;;11.45;5.07;;;21.60;99.90;;;21.30;86.23;101427.56;4168314;28;20022;-70
2021/07/20 07:23:32;;;;;;;8.82;5.10;;;21.70;99.90;;;21.36;86.61;101438.31;4167173;28;20104;-70
2021/07/20 07:25:34;;;;;;;8.55;4.97;;;21.80;99.90;;;21.40;86.59;101438.72;4183349;28;20508;-70
2021/07/20 07:27:38;;;;;;;8.27;5.70;;;21.80;99.90;;;21.43;87.16;101431.06;4158241;28;20096;-70
2021/07/20 07:29:41;;;;;;;7.53;4.88;;;21.80;99.90;;;21.51;85.41;101435.38;4168369;28;20048;-70
2021/07/20 07:31:47;;;;;;;6.57;4.77;;;21.90;99.90;;;21.56;85.69;101424.84;4167420;28;20029;-70
2021/07/20 07:33:50;;;;;;;7.85;5.47;;;22.00;99.90;;;21.63;83.31;101428.31;4154046;28;20400;-70
2021/07/20 07:35:52;;;;;;;7.93;5.25;;;22.10;99.90;;;21.74;85.05;101441.09;4170483;28;20033;-70
2021/07/20 07:37:56;;;;;;;10.40;5.38;;;22.10;99.90;;;21.81;82.47;101444.56;4170084;28;20029;-70
2021/07/20 07:40:00;;;;;;;8.65;4.82;;;22.20;99.90;;;21.83;82.58;101439.81;4170179;28;20022;-70
2021/07/20 07:42:01;;;;;;;;;;;22.30;99.90;;;21.86;83.89;101439.38;4170615;28;20103;-70
2021/07/20 07:44:03;;;;;;;8.88;4.85;;;22.40;99.90;;;21.99;82.13;101447.41;4179498;28;19931;-70
2021/07/20 07:46:05;;;;;;;9.75;4.90;;;22.40;99.90;;;22.05;82.13;101446.56;4171267;28;20060;-70
2021/07/20 07:48:07;;;;;;;5.22;4.43;;;22.50;99.90;;;22.14;81.86;101449.00;4170215;28;20057;-70
2021/07/20 07:50:08;;;;;;;5.72;4.40;;;22.60;99.90;;;22.20;82.95;101448.13;4171373;28;20108;-70
2021/07/20 07:52:13;;;;;;;7.82;4.53;;;22.70;99.90;;;22.29;84.02;101449.53;4169891;28;20026;-70
2021/07/20 07:54:14;;;;;;;6.65;4.70;;;22.70;99.90;;;22.38;82.10;101446.38;4186215;28;20095;-70
2021/07/20 07:56:15;;;;;;;8.73;4.95;;;22.80;99.90;;;22.51;79.89;101449.00;4170032;28;20515;-70
2021/07/20 07:58:17;;;;;;;6.05;4.45;;;22.90;99.90;;;22.57;79.88;101452.69;4186454;28;20045;-70
2021/07/20 08:00:19;;;;;;;5.88;4.95;;;23.10;99.90;;;22.64;79.96;101450.75;4169710;28;20448;-70
2021/07/20 08:02:24;;;;;;;6.25;4.53;;;23.10;99.90;;;22.81;77.82;101457.31;4170834;28;20029;-70
2021/07/20 08:04:27;;;;;;;9.80;5.20;;;23.20;99.90;;;22.93;76.54;101452.03;4169582;28;20033;-70
2021/07/20 08:06:30;;;;;;;9.35;4.60;;;23.40;99.90;;;22.83;73.81;101446.31;4169685;28;20485;-70
2021/07/20 08:08:39;;;;;;;5.50;4.45;;;23.50;99.90;;;23.06;74.74;101454.59;4169557;28;20029;-70
2021/07/20 08:10:43;;;;;;;6.65;4.40;;;23.60;99.90;;;23.20;75.08;101455.31;4153056;28;20030;-70
2021/07/20 08:12:46;;;;;;;5.72;4.30;;;23.70;99.90;;;23.31;72.91;101444.63;4169633;28;20026;-70
2021/07/20 08:14:47;;;;;;;7.05;4.32;;;23.90;99.90;;;23.47;72.86;101454.88;4169521;28;20057;-70
2021/07/20 08:16:54;;;;;;;3.95;3.55;;;24.00;99.90;;;23.63;73.77;101456.13;4152948;28;20602;-70
2021/07/20 08:18:58;;;;;;;7.38;4.05;;;24.10;99.90;;;23.78;71.88;101459.25;4168880;28;20025;-70
2021/07/20 08:21:05;;;;;;;7.28;4.43;;;24.20;99.90;;;23.94;73.51;101458.66;4169375;28;20021;-70
2021/07/20 08:23:07;;;;;;;6.60;4.03;;;24.40;99.90;;;23.99;73.42;101450.72;4164248;28;20116;-70
2021/07/20 08:25:17;;;;;;;6.25;4.38;;;24.50;99.90;;;24.18;73.46;101457.75;4169245;28;20108;-70
2021/07/20 08:27:40;;;;;;;5.60;4.13;;;24.60;99.90;;;24.28;70.51;101456.41;4159258;28;20029;-70
2021/07/20 08:29:45;;;;;;;5.75;4.38;;;24.80;99.90;;;24.38;68.57;101456.66;4155127;28;20034;-70
2021/07/20 08:31:55;;;;;;;9.27;4.22;;;24.90;99.90;;;24.53;68.54;101455.19;4169414;28;20470;-70
2021/07/20 08:34:02;;;;;;;7.97;4.30;;;25.10;99.90;;;24.61;67.32;101451.34;4169580;28;20045;-70
2021/07/20 08:36:07;;;;;;;5.38;4.47;;;25.20;99.90;;;24.68;67.51;101452.03;4169527;28;20099;-70
2021/07/20 08:38:12;;;;;;;6.15;4.28;;;25.30;99.90;;;24.86;66.42;101454.69;4152818;28;20106;-70